This is the latest recevied weather packets stored in our database for station/object NG6B-2. If no packets are shown the sender has not sent any weather packets the latest 10 day(s).
| Time | Temp. | Humidity | Pressure | Rain* | Wind** | Luminosity | Snow |
|---|---|---|---|---|---|---|---|
| 1777649508 | 19.44° C | 46% | 1006.8 hPa | 0 mm | - | - | - |
| 1777647707 | 18.33° C | 53% | 1006.6 hPa | 0 mm | - | - | - |
| 1777645906 | 16.67° C | 60% | 1006.5 hPa | 0 mm | - | - | - |
| 1777644105 | 15° C | 68% | 1006.4 hPa | 0 mm | - | - | - |
| 1777642304 | 12.22° C | 77% | 1006.2 hPa | 0 mm | - | - | - |
| 1777640503 | 12.78° C | 74% | 1006 hPa | 0 mm | - | - | - |
| 1777638702 | 13.33° C | 71% | 1005.6 hPa | 0 mm | - | - | - |
| 1777636901 | 13.33° C | 73% | 1005.2 hPa | 0 mm | - | - | - |
| 1777635100 | 13.89° C | 72% | 1004.9 hPa | 0 mm | - | - | - |
| 1777633299 | 13.89° C | 68% | 1004.8 hPa | 0 mm | - | - | - |
| 1777631498 | 13.89° C | 69% | 1004.8 hPa | 0 mm | - | - | - |
| 1777629697 | 14.44° C | 65% | 1004.7 hPa | 0 mm | - | - | - |
| 1777627896 | 13.89° C | 68% | 1004.3 hPa | 0 mm | - | - | - |
| 1777626095 | 13.89° C | 69% | 1004 hPa | 0 mm | - | - | - |
| 1777624294 | 14.44° C | 69% | 1004.1 hPa | 0 mm | - | - | - |
| 1777622493 | 14.44° C | 68% | 1004.3 hPa | 0 mm | - | - | - |
| 1777620692 | 15° C | 68% | 1004.9 hPa | 0 mm | - | - | - |
| 1777618891 | 15° C | 69% | 1005.1 hPa | 0 mm | - | - | - |
| 1777617090 | 15° C | 69% | 1005.5 hPa | 0 mm | - | - | - |
| 1777615289 | 15° C | 64% | 1006 hPa | 0 mm | - | - | - |
| 1777613488 | 15° C | 64% | 1006 hPa | 0 mm | - | - | - |
| 1777611687 | 15° C | 64% | 1005.5 hPa | 0 mm | - | - | - |
| 1777609886 | 16.11° C | 61% | 1006 hPa | 0 mm | - | - | - |
| 1777608085 | 17.22° C | 60% | 1003.7 hPa | 0 mm | - | - | - |
| 1777606284 | 17.22° C | 68% | 1003.8 hPa | 0 mm | - | - | - |
* Rain latest hour (hover to see other rain measurements)
** Current wind speed in m/s (hover to see current wind gust speed)